sensor_id;sensor_type;location;lat;lon;timestamp;pressure;altitude;pressure_sealevel;temperature;humidity
12146;BME280;6136;47.032;15.398;2023-04-23T00:01:14;97099.72;;;8.73;100.00
12146;BME280;6136;47.032;15.398;2023-04-23T00:03:45;97105.16;;;8.70;100.00
12146;BME280;6136;47.032;15.398;2023-04-23T00:06:16;97086.13;;;8.65;100.00
12146;BME280;6136;47.032;15.398;2023-04-23T00:08:46;97078.28;;;8.64;100.00
12146;BME280;6136;47.032;15.398;2023-04-23T00:11:16;97093.47;;;8.60;100.00
12146;BME280;6136;47.032;15.398;2023-04-23T00:13:45;97086.50;;;8.59;100.00
12146;BME280;6136;47.032;15.398;2023-04-23T00:16:15;97096.22;;;8.59;100.00
12146;BME280;6136;47.032;15.398;2023-04-23T00:18:43;97094.78;;;8.53;100.00
12146;BME280;6136;47.032;15.398;2023-04-23T00:21:12;97092.53;;;8.47;100.00
12146;BME280;6136;47.032;15.398;2023-04-23T00:23:40;97094.41;;;8.45;100.00
12146;BME280;6136;47.032;15.398;2023-04-23T00:26:10;97098.88;;;8.44;100.00
12146;BME280;6136;47.032;15.398;2023-04-23T00:28:38;97090.19;;;8.42;100.00
12146;BME280;6136;47.032;15.398;2023-04-23T00:31:06;97090.56;;;8.36;100.00
12146;BME280;6136;47.032;15.398;2023-04-23T00:33:35;97093.28;;;8.35;100.00
12146;BME280;6136;47.032;15.398;2023-04-23T00:36:04;97094.41;;;8.31;100.00
12146;BME280;6136;47.032;15.398;2023-04-23T00:38:33;97097.22;;;8.28;100.00
12146;BME280;6136;47.032;15.398;2023-04-23T00:41:01;97081.56;;;8.25;100.00
12146;BME280;6136;47.032;15.398;2023-04-23T00:43:31;97085.13;;;8.24;100.00
12146;BME280;6136;47.032;15.398;2023-04-23T00:45:59;97099.25;;;8.23;100.00
12146;BME280;6136;47.032;15.398;2023-04-23T00:48:28;97084.47;;;8.20;100.00
12146;BME280;6136;47.032;15.398;2023-04-23T00:50:57;97094.34;;;8.16;100.00
12146;BME280;6136;47.032;15.398;2023-04-23T00:53:27;97097.28;;;8.12;100.00
12146;BME280;6136;47.032;15.398;2023-04-23T00:55:55;97098.13;;;8.12;100.00
12146;BME280;6136;47.032;15.398;2023-04-23T00:58:24;97096.25;;;8.14;100.00
12146;BME280;6136;47.032;15.398;2023-04-23T01:00:54;97093.03;;;8.09;100.00
12146;BME280;6136;47.032;15.398;2023-04-23T01:03:25;97100.22;;;8.07;100.00
12146;BME280;6136;47.032;15.398;2023-04-23T01:05:55;97096.72;;;8.07;100.00
12146;BME280;6136;47.032;15.398;2023-04-23T01:08:23;97100.22;;;8.07;100.00
12146;BME280;6136;47.032;15.398;2023-04-23T01:10:52;97099.69;;;8.01;100.00
12146;BME280;6136;47.032;15.398;2023-04-23T01:13:21;97085.84;;;7.97;100.00
12146;BME280;6136;47.032;15.398;2023-04-23T01:15:54;97093.94;;;7.94;100.00
12146;BME280;6136;47.032;15.398;2023-04-23T01:18:23;97098.38;;;7.94;100.00
12146;BME280;6136;47.032;15.398;2023-04-23T01:20:51;97094.31;;;7.88;100.00
12146;BME280;6136;47.032;15.398;2023-04-23T01:23:21;97089.31;;;7.84;100.00
12146;BME280;6136;47.032;15.398;2023-04-23T01:25:50;97086.84;;;7.80;100.00
12146;BME280;6136;47.032;15.398;2023-04-23T01:28:18;97082.25;;;7.84;100.00
12146;BME280;6136;47.032;15.398;2023-04-23T01:30:46;97095.69;;;7.79;100.00
12146;BME280;6136;47.032;15.398;2023-04-23T01:33:15;97085.44;;;7.75;100.00
12146;BME280;6136;47.032;15.398;2023-04-23T01:35:45;97085.72;;;7.70;100.00
12146;BME280;6136;47.032;15.398;2023-04-23T01:38:16;97086.72;;;7.68;100.00
12146;BME280;6136;47.032;15.398;2023-04-23T01:40:46;97082.31;;;7.68;100.00
12146;BME280;6136;47.032;15.398;2023-04-23T01:43:14;97086.81;;;7.66;100.00
12146;BME280;6136;47.032;15.398;2023-04-23T01:45:44;97086.88;;;7.65;100.00
12146;BME280;6136;47.032;15.398;2023-04-23T01:48:12;97098.47;;;7.62;100.00
12146;BME280;6136;47.032;15.398;2023-04-23T01:50:41;97085.97;;;7.66;100.00
12146;BME280;6136;47.032;15.398;2023-04-23T01:53:10;97082.75;;;7.61;100.00
12146;BME280;6136;47.032;15.398;2023-04-23T01:55:38;97080.88;;;7.63;100.00
12146;BME280;6136;47.032;15.398;2023-04-23T01:58:08;97081.91;;;7.60;100.00
12146;BME280;6136;47.032;15.398;2023-04-23T02:00:36;97085.75;;;7.55;100.00
12146;BME280;6136;47.032;15.398;2023-04-23T02:03:05;97086.84;;;7.51;100.00
12146;BME280;6136;47.032;15.398;2023-04-23T02:05:34;97081.66;;;7.49;100.00
12146;BME280;6136;47.032;15.398;2023-04-23T02:08:03;97082.63;;;7.48;100.00
12146;BME280;6136;47.032;15.398;2023-04-23T02:10:31;97083.34;;;7.50;100.00
12146;BME280;6136;47.032;15.398;2023-04-23T02:13:00;97085.06;;;7.51;100.00
12146;BME280;6136;47.032;15.398;2023-04-23T02:15:30;97079.28;;;7.45;100.00
12146;BME280;6136;47.032;15.398;2023-04-23T02:17:59;97079.44;;;7.41;100.00
12146;BME280;6136;47.032;15.398;2023-04-23T02:20:28;97082.19;;;7.40;100.00
12146;BME280;6136;47.032;15.398;2023-04-23T02:22:56;97085.84;;;7.37;100.00
12146;BME280;6136;47.032;15.398;2023-04-23T02:25:24;97081.50;;;7.36;100.00
12146;BME280;6136;47.032;15.398;2023-04-23T02:27:53;97080.94;;;7.31;100.00
12146;BME280;6136;47.032;15.398;2023-04-23T02:30:23;97080.16;;;7.29;100.00
12146;BME280;6136;47.032;15.398;2023-04-23T02:32:53;97081.09;;;7.28;100.00
12146;BME280;6136;47.032;15.398;2023-04-23T02:35:21;97083.72;;;7.28;100.00
12146;BME280;6136;47.032;15.398;2023-04-23T02:37:50;97085.78;;;7.23;100.00
12146;BME280;6136;47.032;15.398;2023-04-23T02:40:20;97082.38;;;7.21;100.00
12146;BME280;6136;47.032;15.398;2023-04-23T02:42:48;97085.94;;;7.20;100.00
12146;BME280;6136;47.032;15.398;2023-04-23T02:45:16;97081.59;;;7.19;100.00
12146;BME280;6136;47.032;15.398;2023-04-23T02:47:44;97079.81;;;7.20;100.00
12146;BME280;6136;47.032;15.398;2023-04-23T02:50:14;97081.09;;;7.13;100.00
12146;BME280;6136;47.032;15.398;2023-04-23T02:52:43;97078.75;;;7.08;100.00
12146;BME280;6136;47.032;15.398;2023-04-23T02:55:12;97088.34;;;7.09;100.00
12146;BME280;6136;47.032;15.398;2023-04-23T02:57:40;97087.59;;;7.07;100.00
12146;BME280;6136;47.032;15.398;2023-04-23T03:00:09;97085.28;;;7.01;100.00
12146;BME280;6136;47.032;15.398;2023-04-23T03:02:40;97080.88;;;7.01;100.00
12146;BME280;6136;47.032;15.398;2023-04-23T03:05:09;97072.97;;;7.01;100.00
12146;BME280;6136;47.032;15.398;2023-04-23T03:07:41;97073.06;;;7.00;100.00
12146;BME280;6136;47.032;15.398;2023-04-23T03:10:09;97086.38;;;6.97;100.00
12146;BME280;6136;47.032;15.398;2023-04-23T03:12:38;97073.91;;;7.00;100.00
12146;BME280;6136;47.032;15.398;2023-04-23T03:15:08;97076.63;;;6.99;100.00
12146;BME280;6136;47.032;15.398;2023-04-23T03:17:37;97077.56;;;6.98;100.00
12146;BME280;6136;47.032;15.398;2023-04-23T03:20:07;97079.19;;;7.00;100.00
12146;BME280;6136;47.032;15.398;2023-04-23T03:22:37;97072.97;;;7.01;100.00
12146;BME280;6136;47.032;15.398;2023-04-23T03:25:07;97076.81;;;6.96;100.00
12146;BME280;6136;47.032;15.398;2023-04-23T03:27:37;97071.84;;;6.90;100.00
12146;BME280;6136;47.032;15.398;2023-04-23T03:30:07;97072.56;;;6.93;100.00
12146;BME280;6136;47.032;15.398;2023-04-23T03:32:35;97070.19;;;6.89;100.00
12146;BME280;6136;47.032;15.398;2023-04-23T03:35:05;97068.28;;;6.91;100.00
12146;BME280;6136;47.032;15.398;2023-04-23T03:37:38;97073.75;;;6.88;100.00
12146;BME280;6136;47.032;15.398;2023-04-23T03:40:08;97067.78;;;6.84;100.00
12146;BME280;6136;47.032;15.398;2023-04-23T03:42:39;97066.34;;;6.79;100.00
12146;BME280;6136;47.032;15.398;2023-04-23T03:45:09;97077.97;;;6.75;100.00
12146;BME280;6136;47.032;15.398;2023-04-23T03:47:39;97078.94;;;6.74;100.00
12146;BME280;6136;47.032;15.398;2023-04-23T03:50:08;97064.72;;;6.76;100.00
12146;BME280;6136;47.032;15.398;2023-04-23T03:52:39;97066.75;;;6.71;100.00
12146;BME280;6136;47.032;15.398;2023-04-23T03:55:15;97065.75;;;6.74;100.00
12146;BME280;6136;47.032;15.398;2023-04-23T03:57:45;97065.13;;;6.69;100.00
12146;BME280;6136;47.032;15.398;2023-04-23T04:00:19;97061.50;;;6.71;100.00
12146;BME280;6136;47.032;15.398;2023-04-23T04:02:47;97065.22;;;6.67;100.00
12146;BME280;6136;47.032;15.398;2023-04-23T04:05:16;97066.91;;;6.68;100.00
12146;BME280;6136;47.032;15.398;2023-04-23T04:07:45;97063.44;;;6.68;100.00
12146;BME280;6136;47.032;15.398;2023-04-23T04:10:15;97059.13;;;6.67;100.00
12146;BME280;6136;47.032;15.398;2023-04-23T04:12:43;97063.44;;;6.68;100.00
12146;BME280;6136;47.032;15.398;2023-04-23T04:15:14;97060.56;;;6.72;100.00
12146;BME280;6136;47.032;15.398;2023-04-23T04:17:43;97057.25;;;6.69;100.00
12146;BME280;6136;47.032;15.398;2023-04-23T04:20:12;97075.19;;;6.78;100.00
12146;BME280;6136;47.032;15.398;2023-04-23T04:22:40;97071.44;;;6.82;100.00
12146;BME280;6136;47.032;15.398;2023-04-23T04:25:08;97067.97;;;6.81;100.00
12146;BME280;6136;47.032;15.398;2023-04-23T04:27:39;97074.59;;;6.88;100.00
12146;BME280;6136;47.032;15.398;2023-04-23T04:30:10;97074.06;;;6.97;100.00
12146;BME280;6136;47.032;15.398;2023-04-23T04:32:38;97073.06;;;7.00;100.00
12146;BME280;6136;47.032;15.398;2023-04-23T04:35:08;97069.50;;;7.01;100.00
12146;BME280;6136;47.032;15.398;2023-04-23T04:37:36;97062.50;;;7.00;100.00
12146;BME280;6136;47.032;15.398;2023-04-23T04:40:06;97063.88;;;7.07;100.00
12146;BME280;6136;47.032;15.398;2023-04-23T04:42:37;97079.16;;;7.16;100.00
12146;BME280;6136;47.032;15.398;2023-04-23T04:45:07;97072.03;;;7.18;100.00
12146;BME280;6136;47.032;15.398;2023-04-23T04:47:36;97072.41;;;7.26;100.00
12146;BME280;6136;47.032;15.398;2023-04-23T04:50:05;97078.09;;;7.34;100.00
12146;BME280;6136;47.032;15.398;2023-04-23T04:52:34;97079.13;;;7.48;100.00
12146;BME280;6136;47.032;15.398;2023-04-23T04:55:03;97082.19;;;7.56;100.00
12146;BME280;6136;47.032;15.398;2023-04-23T04:57:32;97086.72;;;7.68;100.00
12146;BME280;6136;47.032;15.398;2023-04-23T05:00:07;97084.28;;;7.79;100.00
12146;BME280;6136;47.032;15.398;2023-04-23T05:02:48;97073.88;;;7.92;100.00
12146;BME280;6136;47.032;15.398;2023-04-23T05:05:18;97087.59;;;8.12;100.00
12146;BME280;6136;47.032;15.398;2023-04-23T05:07:46;97082.50;;;8.24;100.00
12146;BME280;6136;47.032;15.398;2023-04-23T05:10:15;97084.06;;;8.42;100.00
12146;BME280;6136;47.032;15.398;2023-04-23T05:12:43;97083.03;;;8.59;100.00
12146;BME280;6136;47.032;15.398;2023-04-23T05:15:12;97085.75;;;8.71;100.00
12146;BME280;6136;47.032;15.398;2023-04-23T05:17:41;97085.41;;;8.90;100.00
12146;BME280;6136;47.032;15.398;2023-04-23T05:20:11;97081.16;;;9.02;100.00
12146;BME280;6136;47.032;15.398;2023-04-23T05:22:41;97083.78;;;9.16;100.00
12146;BME280;6136;47.032;15.398;2023-04-23T05:25:10;97084.50;;;9.32;100.00
12146;BME280;6136;47.032;15.398;2023-04-23T05:27:39;97088.97;;;9.44;100.00
12146;BME280;6136;47.032;15.398;2023-04-23T05:30:09;97084.13;;;9.51;100.00
12146;BME280;6136;47.032;15.398;2023-04-23T05:32:37;97082.59;;;9.61;100.00
12146;BME280;6136;47.032;15.398;2023-04-23T05:35:06;97075.63;;;9.72;100.00
12146;BME280;6136;47.032;15.398;2023-04-23T05:37:36;97081.16;;;9.82;100.00
12146;BME280;6136;47.032;15.398;2023-04-23T05:40:05;97073.31;;;9.93;100.00
12146;BME280;6136;47.032;15.398;2023-04-23T05:42:34;97078.66;;;10.06;100.00
12146;BME280;6136;47.032;15.398;2023-04-23T05:45:03;97083.13;;;10.18;100.00
12146;BME280;6136;47.032;15.398;2023-04-23T05:47:35;97082.28;;;10.30;100.00
12146;BME280;6136;47.032;15.398;2023-04-23T05:50:04;97076.16;;;10.42;100.00
12146;BME280;6136;47.032;15.398;2023-04-23T05:52:33;97085.25;;;10.38;100.00
12146;BME280;6136;47.032;15.398;2023-04-23T05:55:05;97079.56;;;10.44;100.00
12146;BME280;6136;47.032;15.398;2023-04-23T05:57:36;97084.44;;;10.50;100.00
12146;BME280;6136;47.032;15.398;2023-04-23T06:00:05;97097.78;;;10.36;100.00
12146;BME280;6136;47.032;15.398;2023-04-23T06:02:40;97093.66;;;10.58;100.00
12146;BME280;6136;47.032;15.398;2023-04-23T06:05:09;97090.56;;;10.64;100.00
12146;BME280;6136;47.032;15.398;2023-04-23T06:07:37;97085.44;;;10.86;100.00
12146;BME280;6136;47.032;15.398;2023-04-23T06:10:09;97098.75;;;10.97;100.00
12146;BME280;6136;47.032;15.398;2023-04-23T06:12:38;97084.50;;;11.23;100.00
12146;BME280;6136;47.032;15.398;2023-04-23T06:15:09;97083.09;;;11.54;100.00
12146;BME280;6136;47.032;15.398;2023-04-23T06:17:37;97087.88;;;11.73;100.00
12146;BME280;6136;47.032;15.398;2023-04-23T06:20:06;97085.59;;;11.92;100.00
12146;BME280;6136;47.032;15.398;2023-04-23T06:22:37;97088.50;;;12.00;100.00
12146;BME280;6136;47.032;15.398;2023-04-23T06:25:08;97090.97;;;12.15;100.00
12146;BME280;6136;47.032;15.398;2023-04-23T06:27:36;97088.75;;;12.43;100.00
12146;BME280;6136;47.032;15.398;2023-04-23T06:30:12;97095.78;;;12.78;100.00
12146;BME280;6136;47.032;15.398;2023-04-23T06:32:40;97089.59;;;13.00;99.65
12146;BME280;6136;47.032;15.398;2023-04-23T06:35:08;97097.59;;;13.11;96.34
12146;BME280;6136;47.032;15.398;2023-04-23T06:37:36;97103.50;;;13.37;97.29
12146;BME280;6136;47.032;15.398;2023-04-23T06:40:05;97099.72;;;13.50;91.47
12146;BME280;6136;47.032;15.398;2023-04-23T06:42:35;97108.03;;;13.68;93.44
12146;BME280;6136;47.032;15.398;2023-04-23T06:45:26;97099.34;;;13.87;90.71
12146;BME280;6136;47.032;15.398;2023-04-23T06:47:57;97095.94;;;14.17;90.32
12146;BME280;6136;47.032;15.398;2023-04-23T06:50:35;97092.41;;;14.27;86.71
12146;BME280;6136;47.032;15.398;2023-04-23T06:53:03;97104.19;;;14.46;89.12
12146;BME280;6136;47.032;15.398;2023-04-23T06:55:32;97099.75;;;14.56;85.68
12146;BME280;6136;47.032;15.398;2023-04-23T06:58:02;97099.88;;;14.54;85.02
12146;BME280;6136;47.032;15.398;2023-04-23T07:00:32;97087.78;;;14.71;82.58
12146;BME280;6136;47.032;15.398;2023-04-23T07:03:01;97088.50;;;15.03;81.10
12146;BME280;6136;47.032;15.398;2023-04-23T07:05:30;97087.63;;;15.33;78.55
12146;BME280;6136;47.032;15.398;2023-04-23T07:07:58;97075.34;;;15.61;76.66
12146;BME280;6136;47.032;15.398;2023-04-23T07:10:27;97079.84;;;15.89;76.60
12146;BME280;6136;47.032;15.398;2023-04-23T07:12:55;97076.06;;;16.21;73.82
12146;BME280;6136;47.032;15.398;2023-04-23T07:15:24;97071.13;;;16.36;71.61
12146;BME280;6136;47.032;15.398;2023-04-23T07:17:53;97069.44;;;16.06;69.75
12146;BME280;6136;47.032;15.398;2023-04-23T07:20:21;97070.69;;;16.30;70.56
12146;BME280;6136;47.032;15.398;2023-04-23T07:22:49;97074.13;;;16.60;71.57
12146;BME280;6136;47.032;15.398;2023-04-23T07:25:18;97071.00;;;16.84;66.74
12146;BME280;6136;47.032;15.398;2023-04-23T07:27:48;97078.50;;;17.17;65.25
12146;BME280;6136;47.032;15.398;2023-04-23T07:30:16;97075.72;;;17.09;65.90
12146;BME280;6136;47.032;15.398;2023-04-23T07:32:46;97064.56;;;17.68;62.08
12146;BME280;6136;47.032;15.398;2023-04-23T07:35:14;97070.59;;;18.23;60.54
12146;BME280;6136;47.032;15.398;2023-04-23T07:37:42;97063.69;;;19.58;57.49
12146;BME280;6136;47.032;15.398;2023-04-23T07:40:11;97057.25;;;22.08;48.02
12146;BME280;6136;47.032;15.398;2023-04-23T07:42:39;97060.66;;;22.99;45.58
12146;BME280;6136;47.032;15.398;2023-04-23T07:45:08;97040.69;;;23.95;43.26
12146;BME280;6136;47.032;15.398;2023-04-23T07:47:37;97062.53;;;25.00;40.11
12146;BME280;6136;47.032;15.398;2023-04-23T07:50:08;97051.50;;;24.73;41.08
12146;BME280;6136;47.032;15.398;2023-04-23T07:52:37;97047.94;;;26.77;35.96
12146;BME280;6136;47.032;15.398;2023-04-23T07:55:06;97049.41;;;26.79;36.57
12146;BME280;6136;47.032;15.398;2023-04-23T07:57:34;97042.19;;;27.64;34.68
12146;BME280;6136;47.032;15.398;2023-04-23T08:00:03;97045.59;;;27.39;35.81
12146;BME280;6136;47.032;15.398;2023-04-23T08:02:37;97033.66;;;27.27;35.22
12146;BME280;6136;47.032;15.398;2023-04-23T08:05:08;97038.31;;;27.85;35.52
12146;BME280;6136;47.032;15.398;2023-04-23T08:07:36;97040.00;;;27.79;34.88
12146;BME280;6136;47.032;15.398;2023-04-23T08:10:06;97041.41;;;28.64;33.31
12146;BME280;6136;47.032;15.398;2023-04-23T08:12:34;97030.66;;;29.92;30.77
12146;BME280;6136;47.032;15.398;2023-04-23T08:15:03;97030.78;;;29.49;32.54
12146;BME280;6136;47.032;15.398;2023-04-23T08:17:37;97034.91;;;29.88;31.26
12146;BME280;6136;47.032;15.398;2023-04-23T08:20:07;97036.69;;;29.03;32.74
12146;BME280;6136;47.032;15.398;2023-04-23T08:22:36;97027.00;;;29.07;30.20
12146;BME280;6136;47.032;15.398;2023-04-23T08:25:05;97041.84;;;27.27;33.07
12146;BME280;6136;47.032;15.398;2023-04-23T08:27:33;97041.44;;;26.38;35.39
12146;BME280;6136;47.032;15.398;2023-04-23T08:30:02;97025.56;;;26.35;35.40
12146;BME280;6136;47.032;15.398;2023-04-23T08:32:32;97036.94;;;24.81;38.64
12146;BME280;6136;47.032;15.398;2023-04-23T08:35:00;97026.94;;;24.11;39.13
12146;BME280;6136;47.032;15.398;2023-04-23T08:37:30;97028.00;;;26.17;35.37
12146;BME280;6136;47.032;15.398;2023-04-23T08:39:59;97022.25;;;28.14;33.36
12146;BME280;6136;47.032;15.398;2023-04-23T08:42:34;97023.69;;;29.96;29.77
12146;BME280;6136;47.032;15.398;2023-04-23T08:45:05;97023.53;;;29.18;32.26
12146;BME280;6136;47.032;15.398;2023-04-23T08:47:34;97024.66;;;30.31;31.22
12146;BME280;6136;47.032;15.398;2023-04-23T08:50:03;97021.63;;;31.16;29.62
12146;BME280;6136;47.032;15.398;2023-04-23T08:52:38;97007.00;;;32.14;28.10
12146;BME280;6136;47.032;15.398;2023-04-23T08:55:08;97009.41;;;32.55;27.44
12146;BME280;6136;47.032;15.398;2023-04-23T08:57:41;97010.72;;;32.08;26.85
12146;BME280;6136;47.032;15.398;2023-04-23T09:00:11;97006.97;;;33.81;24.78
12146;BME280;6136;47.032;15.398;2023-04-23T09:02:41;97007.88;;;35.31;23.37
12146;BME280;6136;47.032;15.398;2023-04-23T09:05:11;97010.59;;;34.89;24.16
12146;BME280;6136;47.032;15.398;2023-04-23T09:07:41;97004.69;;;33.18;26.32
12146;BME280;6136;47.032;15.398;2023-04-23T09:10:11;97009.50;;;33.66;25.54
12146;BME280;6136;47.032;15.398;2023-04-23T09:12:44;97016.44;;;32.80;25.97
12146;BME280;6136;47.032;15.398;2023-04-23T09:15:13;97006.78;;;32.77;27.76
12146;BME280;6136;47.032;15.398;2023-04-23T09:17:44;97001.66;;;32.81;26.23
12146;BME280;6136;47.032;15.398;2023-04-23T09:20:14;96998.63;;;34.73;23.47
12146;BME280;6136;47.032;15.398;2023-04-23T09:22:45;96997.72;;;34.36;24.12
12146;BME280;6136;47.032;15.398;2023-04-23T09:25:15;96996.75;;;34.52;23.69
12146;BME280;6136;47.032;15.398;2023-04-23T09:27:45;96992.88;;;33.17;25.32
12146;BME280;6136;47.032;15.398;2023-04-23T09:30:14;96982.84;;;31.59;27.90
12146;BME280;6136;47.032;15.398;2023-04-23T09:32:44;96986.44;;;32.28;27.60
12146;BME280;6136;47.032;15.398;2023-04-23T09:35:14;96984.13;;;30.81;28.97
12146;BME280;6136;47.032;15.398;2023-04-23T09:37:45;96984.59;;;30.67;28.79
12146;BME280;6136;47.032;15.398;2023-04-23T09:40:16;96980.59;;;29.07;30.42
12146;BME280;6136;47.032;15.398;2023-04-23T09:42:47;96977.34;;;28.73;30.72
12146;BME280;6136;47.032;15.398;2023-04-23T09:45:16;96974.84;;;29.15;30.91
12146;BME280;6136;47.032;15.398;2023-04-23T09:47:49;96967.84;;;29.73;30.70
12146;BME280;6136;47.032;15.398;2023-04-23T09:50:18;96968.13;;;30.02;30.62
12146;BME280;6136;47.032;15.398;2023-04-23T09:52:54;96962.56;;;29.79;30.64
12146;BME280;6136;47.032;15.398;2023-04-23T09:55:27;96973.88;;;30.65;29.60
12146;BME280;6136;47.032;15.398;2023-04-23T09:57:57;96966.47;;;32.78;26.57
12146;BME280;6136;47.032;15.398;2023-04-23T10:00:25;96965.50;;;32.38;27.33
12146;BME280;6136;47.032;15.398;2023-04-23T10:02:58;96962.22;;;30.17;31.29
12146;BME280;6136;47.032;15.398;2023-04-23T10:05:27;96965.31;;;30.08;31.70
12146;BME280;6136;47.032;15.398;2023-04-23T10:08:17;96947.16;;;31.54;28.40
12146;BME280;6136;47.032;15.398;2023-04-23T10:10:46;96947.63;;;31.11;29.98
12146;BME280;6136;47.032;15.398;2023-04-23T10:13:17;96939.75;;;33.28;26.24
12146;BME280;6136;47.032;15.398;2023-04-23T10:15:47;96930.25;;;34.97;23.68
12146;BME280;6136;47.032;15.398;2023-04-23T10:18:15;96937.78;;;34.43;24.18
12146;BME280;6136;47.032;15.398;2023-04-23T10:20:44;96935.63;;;32.09;28.13
12146;BME280;6136;47.032;15.398;2023-04-23T10:23:13;96937.28;;;32.38;28.06
12146;BME280;6136;47.032;15.398;2023-04-23T10:25:44;96926.81;;;33.45;25.08
12146;BME280;6136;47.032;15.398;2023-04-23T10:28:15;96931.91;;;33.59;24.72
12146;BME280;6136;47.032;15.398;2023-04-23T10:30:44;96928.25;;;32.93;25.43
12146;BME280;6136;47.032;15.398;2023-04-23T10:33:13;96926.22;;;32.05;26.61
12146;BME280;6136;47.032;15.398;2023-04-23T10:35:56;96917.69;;;31.21;27.86
12146;BME280;6136;47.032;15.398;2023-04-23T10:38:25;96917.81;;;31.66;27.37
12146;BME280;6136;47.032;15.398;2023-04-23T10:40:57;96912.66;;;32.26;25.45
12146;BME280;6136;47.032;15.398;2023-04-23T10:43:28;96915.03;;;31.38;27.83
12146;BME280;6136;47.032;15.398;2023-04-23T10:45:56;96900.78;;;32.09;26.54
12146;BME280;6136;47.032;15.398;2023-04-23T10:48:26;96902.63;;;31.47;28.40
12146;BME280;6136;47.032;15.398;2023-04-23T10:50:58;96899.13;;;31.23;28.94
12146;BME280;6136;47.032;15.398;2023-04-23T10:53:30;96901.25;;;31.33;28.82
12146;BME280;6136;47.032;15.398;2023-04-23T10:56:06;96905.47;;;31.52;28.69
12146;BME280;6136;47.032;15.398;2023-04-23T10:58:47;96901.19;;;32.80;25.71
12146;BME280;6136;47.032;15.398;2023-04-23T11:01:17;96899.91;;;31.47;28.37
12146;BME280;6136;47.032;15.398;2023-04-23T11:03:46;96905.81;;;30.22;29.46
12146;BME280;6136;47.032;15.398;2023-04-23T11:06:18;96892.38;;;30.44;28.18
12146;BME280;6136;47.032;15.398;2023-04-23T11:08:50;96894.13;;;28.46;31.77
12146;BME280;6136;47.032;15.398;2023-04-23T11:11:37;96901.78;;;28.37;32.13
12146;BME280;6136;47.032;15.398;2023-04-23T11:14:10;96887.50;;;28.60;31.38
12146;BME280;6136;47.032;15.398;2023-04-23T11:16:41;96895.94;;;28.34;31.43
12146;BME280;6136;47.032;15.398;2023-04-23T11:19:10;96895.78;;;28.29;31.21
12146;BME280;6136;47.032;15.398;2023-04-23T11:21:58;96897.88;;;27.70;33.42
12146;BME280;6136;47.032;15.398;2023-04-23T11:24:31;96896.50;;;27.55;35.16
12146;BME280;6136;47.032;15.398;2023-04-23T11:27:04;96890.59;;;27.51;34.49
12146;BME280;6136;47.032;15.398;2023-04-23T11:29:32;96889.66;;;27.77;32.49
12146;BME280;6136;47.032;15.398;2023-04-23T11:32:00;96880.25;;;28.29;30.82
12146;BME280;6136;47.032;15.398;2023-04-23T11:34:31;96878.03;;;28.19;30.90
12146;BME280;6136;47.032;15.398;2023-04-23T11:37:01;96867.56;;;28.16;31.00
12146;BME280;6136;47.032;15.398;2023-04-23T11:39:31;96884.31;;;27.51;32.69
12146;BME280;6136;47.032;15.398;2023-04-23T11:42:00;96872.03;;;26.84;34.80
12146;BME280;6136;47.032;15.398;2023-04-23T11:44:31;96873.97;;;27.28;33.11
12146;BME280;6136;47.032;15.398;2023-04-23T11:47:00;96865.53;;;27.42;31.84
12146;BME280;6136;47.032;15.398;2023-04-23T11:49:29;96865.19;;;27.32;32.00
12146;BME280;6136;47.032;15.398;2023-04-23T11:51:58;96868.25;;;27.49;32.21
12146;BME280;6136;47.032;15.398;2023-04-23T11:54:27;96860.22;;;27.92;31.58
12146;BME280;6136;47.032;15.398;2023-04-23T11:56:57;96856.09;;;27.83;32.64
12146;BME280;6136;47.032;15.398;2023-04-23T11:59:27;96860.13;;;28.30;31.10
12146;BME280;6136;47.032;15.398;2023-04-23T12:01:56;96849.47;;;28.47;30.24
12146;BME280;6136;47.032;15.398;2023-04-23T12:04:26;96847.63;;;28.41;30.77
12146;BME280;6136;47.032;15.398;2023-04-23T12:06:55;96856.97;;;29.24;28.88
12146;BME280;6136;47.032;15.398;2023-04-23T12:09:25;96847.88;;;28.57;29.27
12146;BME280;6136;47.032;15.398;2023-04-23T12:11:55;96854.47;;;26.93;31.89
12146;BME280;6136;47.032;15.398;2023-04-23T12:14:29;96847.66;;;27.22;31.21
12146;BME280;6136;47.032;15.398;2023-04-23T12:17:08;96844.78;;;25.86;34.47
12146;BME280;6136;47.032;15.398;2023-04-23T12:19:37;96839.56;;;25.65;35.03
12146;BME280;6136;47.032;15.398;2023-04-23T12:22:06;96839.56;;;26.24;34.59
12146;BME280;6136;47.032;15.398;2023-04-23T12:24:45;96835.72;;;26.72;34.23
12146;BME280;6136;47.032;15.398;2023-04-23T12:27:15;96833.75;;;27.74;30.91
12146;BME280;6136;47.032;15.398;2023-04-23T12:29:58;96820.94;;;28.68;30.23
12146;BME280;6136;47.032;15.398;2023-04-23T12:32:26;96827.66;;;28.65;31.66
12146;BME280;6136;47.032;15.398;2023-04-23T12:34:55;96822.25;;;29.13;30.50
12146;BME280;6136;47.032;15.398;2023-04-23T12:37:24;96821.41;;;29.49;29.49
12146;BME280;6136;47.032;15.398;2023-04-23T12:39:53;96815.41;;;29.11;31.52
12146;BME280;6136;47.032;15.398;2023-04-23T12:42:25;96810.25;;;29.62;31.35
12146;BME280;6136;47.032;15.398;2023-04-23T12:45:04;96794.09;;;30.14;29.09
12146;BME280;6136;47.032;15.398;2023-04-23T12:47:33;96806.91;;;30.14;29.86
12146;BME280;6136;47.032;15.398;2023-04-23T12:50:01;96797.97;;;29.95;30.26
12146;BME280;6136;47.032;15.398;2023-04-23T12:52:31;96793.75;;;30.97;27.85
12146;BME280;6136;47.032;15.398;2023-04-23T12:55:00;96796.44;;;29.99;31.14
12146;BME280;6136;47.032;15.398;2023-04-23T12:57:30;96781.31;;;29.85;31.50
12146;BME280;6136;47.032;15.398;2023-04-23T13:00:00;96784.72;;;30.85;27.81
12146;BME280;6136;47.032;15.398;2023-04-23T13:02:29;96772.31;;;30.42;28.14
12146;BME280;6136;47.032;15.398;2023-04-23T13:04:57;96773.63;;;30.28;27.99
12146;BME280;6136;47.032;15.398;2023-04-23T13:07:27;96763.66;;;30.22;28.06
12146;BME280;6136;47.032;15.398;2023-04-23T13:09:55;96766.66;;;30.84;27.83
12146;BME280;6136;47.032;15.398;2023-04-23T13:12:25;96752.94;;;30.44;28.33
12146;BME280;6136;47.032;15.398;2023-04-23T13:14:53;96747.72;;;29.96;30.42